RJOKRJBB

Guest
Details From RJOK - KOCHI
To RJBB - KANSAI INTL
Flight Number -
Tags generated
Created
Modified
Stats Distance 95 nm / 175 km
Max Altitude 200 ft / 61 m
Waypoints 3
Social Downloads 1
Likes 0
Share VATSIM

Download

Looking for another format? Having issues loading an existing format? Contact us
Advertisement - Login to hide

Notes

Basic altitude profile: - Ascent Rate: 2500ft/min - Ascent Speed: 250kts - Cruise Altitude: 35000ft - Cruise Speed: 420kts - Descent Rate: 1500ft/min - Descent Speed: 250kts Options: - Use NATs: yes - Use PACOTS: yes - Use low airways: yes - Use high airways: yes

Route

RJOK KRE RJBB

ID Type Via Altitude Latitude Longitude Leg Dist Tot Dist Heading (true) Name
O RJOK APT - 0 ft / 0 m 33.54602˚ 133.66940˚ - 0 nm - KOCHI
KRE VOR - 200 ft / 61 m 33.54178˚ 133.68016˚ 0 nm 0 nm 115° / 115° KOCHI VOR-DME
O RJBB APT - 0 ft / 0 m 34.43362˚ 135.23360˚ 94 nm 94 nm 55° / 56° KANSAI INTL

Altitude Profile

Advertisement - Login to hide

RJOK

Details ICAO RJOK (KCZ)
Name KOCHI
Region Japan
Timezone Asia/Tokyo (UTC+9.0)
Stats Elevation 42 ft / 13 m (AMSL)
Location 33.546023° 133.669396°
Runways 1
Magnetic Variation 7.390° W

METAR

RJOK 120000Z 32006KT 9999 FEW030 05/M09 Q1021

Decode

TAF

TAF RJOK 112306Z 1200/1306 33011KT 9999 FEW030

Decode

Departure Runways

ID Width Length Bearing (true) Bearing (mag) Surface Threshold Offset Overrun Length
14 148 ft / 45 m 8,204 ft / 2,501 m 130.63° 138.02° Asphalt 0 ft / 0 m 200 ft / 61 m
32 148 ft / 45 m 8,204 ft / 2,501 m 310.64° 318.03° Asphalt 0 ft / 0 m 200 ft / 61 m

RJBB

Details ICAO RJBB (KIX)
Name KANSAI INTL
Region Japan
Timezone Asia/Tokyo (UTC+9.0)
Stats Elevation 26 ft / 8 m (AMSL)
Location 34.433619° 135.233598°
Runways 2
Magnetic Variation 7.580° W

METAR

RJBB 120030Z 27021KT 9999 VCSH FEW015 BKN040 04/M05 Q1022 NOSIG

Decode

TAF

Not found

Destination Runways

ID Width Length Bearing (true) Bearing (mag) Surface Threshold Offset Overrun Length
06L 200 ft / 61 m 13,121 ft / 3,999 m 50.86° 58.44° Asphalt 0 ft / 0 m 200 ft / 61 m
06R 200 ft / 61 m 11,481 ft / 3,499 m 50.86° 58.44° Asphalt 0 ft / 0 m 200 ft / 61 m
24L 200 ft / 61 m 11,481 ft / 3,499 m 230.88° 238.46° Asphalt 0 ft / 0 m 200 ft / 61 m
24R 200 ft / 61 m 13,121 ft / 3,999 m 230.88° 238.46° Asphalt 0 ft / 0 m 200 ft / 61 m

Approach Navaids

Runway Type Ident Frequency Range Bearing (true) Bearing (mag) Slope Elevation
06R Localiser IKD 108.10 MHz 18 nm / 33 km 50.88° 58.46° - 26 ft / 8 m (AMSL)
06R Glidescope IKD 108.10 MHz 10 nm / 19 km 50.87° 58.45° 3.00° 54 ft / 16 m (AMSL)
06R DME IKD 108.10 MHz 18 nm / 33 km - - - 34 ft / 10 m (AMSL)
24L Localiser IKN 110.70 MHz 18 nm / 33 km 230.85° 238.43° - 26 ft / 8 m (AMSL)
24L Glidescope IKN 110.70 MHz 10 nm / 19 km 230.87° 238.45° 3.00° 36 ft / 11 m (AMSL)
24L DME IKN 110.70 MHz 18 nm / 33 km - - - 36 ft / 11 m (AMSL)